sensor_id;sensor_type;location;lat;lon;timestamp;P1;durP1;ratioP1;P2;durP2;ratioP2
22298;SDS011;11317;51.072;17.036;2023-04-26T00:02:13;9.70;;;3.33;;
22298;SDS011;11317;51.072;17.036;2023-04-26T00:04:39;5.85;;;2.70;;
22298;SDS011;11317;51.072;17.036;2023-04-26T00:07:05;4.97;;;2.97;;
22298;SDS011;11317;51.072;17.036;2023-04-26T00:09:31;5.03;;;2.50;;
22298;SDS011;11317;51.072;17.036;2023-04-26T00:11:58;7.25;;;2.90;;
22298;SDS011;11317;51.072;17.036;2023-04-26T00:14:24;5.05;;;3.05;;
22298;SDS011;11317;51.072;17.036;2023-04-26T00:16:50;8.60;;;2.88;;
22298;SDS011;11317;51.072;17.036;2023-04-26T00:19:16;8.32;;;3.20;;
22298;SDS011;11317;51.072;17.036;2023-04-26T00:21:43;9.60;;;3.35;;
22298;SDS011;11317;51.072;17.036;2023-04-26T00:24:09;12.23;;;3.63;;
22298;SDS011;11317;51.072;17.036;2023-04-26T00:26:35;7.38;;;3.08;;
22298;SDS011;11317;51.072;17.036;2023-04-26T00:29:02;3.63;;;2.70;;
22298;SDS011;11317;51.072;17.036;2023-04-26T00:31:28;6.85;;;3.40;;
22298;SDS011;11317;51.072;17.036;2023-04-26T00:33:55;4.50;;;2.40;;
22298;SDS011;11317;51.072;17.036;2023-04-26T00:36:21;6.78;;;2.72;;
22298;SDS011;11317;51.072;17.036;2023-04-26T00:38:47;6.78;;;2.97;;
22298;SDS011;11317;51.072;17.036;2023-04-26T00:41:13;6.22;;;2.80;;
22298;SDS011;11317;51.072;17.036;2023-04-26T00:43:39;9.95;;;3.20;;
22298;SDS011;11317;51.072;17.036;2023-04-26T00:46:06;7.05;;;2.97;;
22298;SDS011;11317;51.072;17.036;2023-04-26T00:48:33;6.05;;;2.67;;
22298;SDS011;11317;51.072;17.036;2023-04-26T00:50:59;7.78;;;3.38;;
22298;SDS011;11317;51.072;17.036;2023-04-26T00:53:26;6.22;;;3.03;;
22298;SDS011;11317;51.072;17.036;2023-04-26T00:55:52;6.82;;;2.95;;
22298;SDS011;11317;51.072;17.036;2023-04-26T00:58:18;6.75;;;3.22;;
22298;SDS011;11317;51.072;17.036;2023-04-26T01:00:45;13.32;;;3.40;;
22298;SDS011;11317;51.072;17.036;2023-04-26T01:03:11;6.68;;;3.35;;
22298;SDS011;11317;51.072;17.036;2023-04-26T01:05:37;8.73;;;3.53;;
22298;SDS011;11317;51.072;17.036;2023-04-26T01:08:03;8.10;;;3.75;;
22298;SDS011;11317;51.072;17.036;2023-04-26T01:10:33;7.32;;;4.03;;
22298;SDS011;11317;51.072;17.036;2023-04-26T01:13:00;9.52;;;3.28;;
22298;SDS011;11317;51.072;17.036;2023-04-26T01:15:29;8.95;;;3.33;;
22298;SDS011;11317;51.072;17.036;2023-04-26T01:17:57;6.70;;;2.95;;
22298;SDS011;11317;51.072;17.036;2023-04-26T01:20:23;5.55;;;3.20;;
22298;SDS011;11317;51.072;17.036;2023-04-26T01:22:50;9.70;;;3.45;;
22298;SDS011;11317;51.072;17.036;2023-04-26T01:25:16;4.30;;;2.92;;
22298;SDS011;11317;51.072;17.036;2023-04-26T01:27:43;7.30;;;3.00;;
22298;SDS011;11317;51.072;17.036;2023-04-26T01:30:09;5.70;;;3.38;;
22298;SDS011;11317;51.072;17.036;2023-04-26T01:32:36;9.55;;;3.13;;
22298;SDS011;11317;51.072;17.036;2023-04-26T01:35:02;10.00;;;2.83;;
22298;SDS011;11317;51.072;17.036;2023-04-26T01:37:29;9.93;;;2.80;;
22298;SDS011;11317;51.072;17.036;2023-04-26T01:39:56;9.00;;;3.55;;
22298;SDS011;11317;51.072;17.036;2023-04-26T01:42:22;5.22;;;2.78;;
22298;SDS011;11317;51.072;17.036;2023-04-26T01:44:48;4.22;;;2.92;;
22298;SDS011;11317;51.072;17.036;2023-04-26T01:47:14;3.92;;;2.40;;
22298;SDS011;11317;51.072;17.036;2023-04-26T01:49:41;14.68;;;3.90;;
22298;SDS011;11317;51.072;17.036;2023-04-26T01:52:07;6.72;;;3.00;;
22298;SDS011;11317;51.072;17.036;2023-04-26T01:54:33;7.90;;;2.70;;
22298;SDS011;11317;51.072;17.036;2023-04-26T01:56:59;9.95;;;3.28;;
22298;SDS011;11317;51.072;17.036;2023-04-26T01:59:26;5.53;;;2.50;;
22298;SDS011;11317;51.072;17.036;2023-04-26T02:01:52;9.80;;;3.03;;
22298;SDS011;11317;51.072;17.036;2023-04-26T02:04:18;13.48;;;3.08;;
22298;SDS011;11317;51.072;17.036;2023-04-26T02:06:44;4.78;;;2.97;;
22298;SDS011;11317;51.072;17.036;2023-04-26T02:09:10;9.18;;;2.95;;
22298;SDS011;11317;51.072;17.036;2023-04-26T02:11:36;5.72;;;2.35;;
22298;SDS011;11317;51.072;17.036;2023-04-26T02:14:02;4.05;;;2.22;;
22298;SDS011;11317;51.072;17.036;2023-04-26T02:16:28;4.40;;;2.72;;
22298;SDS011;11317;51.072;17.036;2023-04-26T02:18:55;7.72;;;3.58;;
22298;SDS011;11317;51.072;17.036;2023-04-26T02:21:21;4.28;;;3.17;;
22298;SDS011;11317;51.072;17.036;2023-04-26T02:23:47;5.72;;;2.78;;
22298;SDS011;11317;51.072;17.036;2023-04-26T02:26:13;6.90;;;2.97;;
22298;SDS011;11317;51.072;17.036;2023-04-26T02:28:40;5.97;;;2.67;;
22298;SDS011;11317;51.072;17.036;2023-04-26T02:31:06;5.10;;;2.95;;
22298;SDS011;11317;51.072;17.036;2023-04-26T02:33:32;4.32;;;2.72;;
22298;SDS011;11317;51.072;17.036;2023-04-26T02:36:01;5.88;;;3.00;;
22298;SDS011;11317;51.072;17.036;2023-04-26T02:38:29;6.07;;;3.03;;
22298;SDS011;11317;51.072;17.036;2023-04-26T02:40:58;4.90;;;2.58;;
22298;SDS011;11317;51.072;17.036;2023-04-26T02:43:24;5.20;;;3.00;;
22298;SDS011;11317;51.072;17.036;2023-04-26T02:45:51;7.95;;;3.20;;
22298;SDS011;11317;51.072;17.036;2023-04-26T02:48:17;6.60;;;2.92;;
22298;SDS011;11317;51.072;17.036;2023-04-26T02:50:43;7.05;;;2.90;;
22298;SDS011;11317;51.072;17.036;2023-04-26T02:53:09;5.60;;;2.50;;
22298;SDS011;11317;51.072;17.036;2023-04-26T02:55:36;6.80;;;2.60;;
22298;SDS011;11317;51.072;17.036;2023-04-26T02:58:03;8.38;;;2.80;;
22298;SDS011;11317;51.072;17.036;2023-04-26T03:00:29;4.75;;;2.38;;
22298;SDS011;11317;51.072;17.036;2023-04-26T03:02:55;5.20;;;2.78;;
22298;SDS011;11317;51.072;17.036;2023-04-26T03:05:21;6.82;;;2.50;;
22298;SDS011;11317;51.072;17.036;2023-04-26T03:07:47;5.63;;;2.58;;
22298;SDS011;11317;51.072;17.036;2023-04-26T03:10:13;7.18;;;3.00;;
22298;SDS011;11317;51.072;17.036;2023-04-26T03:12:39;5.07;;;2.63;;
22298;SDS011;11317;51.072;17.036;2023-04-26T03:15:06;6.85;;;2.45;;
22298;SDS011;11317;51.072;17.036;2023-04-26T03:17:32;4.40;;;2.63;;
22298;SDS011;11317;51.072;17.036;2023-04-26T03:19:58;7.13;;;2.55;;
22298;SDS011;11317;51.072;17.036;2023-04-26T03:22:24;3.30;;;1.98;;
22298;SDS011;11317;51.072;17.036;2023-04-26T03:24:50;2.72;;;1.90;;
22298;SDS011;11317;51.072;17.036;2023-04-26T03:27:17;6.25;;;3.10;;
22298;SDS011;11317;51.072;17.036;2023-04-26T03:29:44;3.95;;;1.98;;
22298;SDS011;11317;51.072;17.036;2023-04-26T03:32:10;8.70;;;2.47;;
22298;SDS011;11317;51.072;17.036;2023-04-26T03:34:36;6.25;;;2.35;;
22298;SDS011;11317;51.072;17.036;2023-04-26T03:37:02;5.75;;;2.10;;
22298;SDS011;11317;51.072;17.036;2023-04-26T03:39:28;4.95;;;2.10;;
22298;SDS011;11317;51.072;17.036;2023-04-26T03:41:54;5.85;;;2.17;;
22298;SDS011;11317;51.072;17.036;2023-04-26T03:44:20;13.60;;;3.38;;
22298;SDS011;11317;51.072;17.036;2023-04-26T03:46:47;2.97;;;2.10;;
22298;SDS011;11317;51.072;17.036;2023-04-26T03:49:13;4.13;;;1.92;;
22298;SDS011;11317;51.072;17.036;2023-04-26T03:51:39;6.10;;;2.53;;
22298;SDS011;11317;51.072;17.036;2023-04-26T03:54:05;8.23;;;2.50;;
22298;SDS011;11317;51.072;17.036;2023-04-26T03:56:31;4.15;;;2.10;;
22298;SDS011;11317;51.072;17.036;2023-04-26T03:58:57;7.57;;;2.38;;
22298;SDS011;11317;51.072;17.036;2023-04-26T04:01:23;6.70;;;2.15;;
22298;SDS011;11317;51.072;17.036;2023-04-26T04:03:50;4.38;;;1.73;;
22298;SDS011;11317;51.072;17.036;2023-04-26T04:06:16;4.45;;;2.35;;
22298;SDS011;11317;51.072;17.036;2023-04-26T04:08:42;5.28;;;2.10;;
22298;SDS011;11317;51.072;17.036;2023-04-26T04:11:08;5.30;;;2.15;;
22298;SDS011;11317;51.072;17.036;2023-04-26T04:13:34;4.93;;;2.20;;
22298;SDS011;11317;51.072;17.036;2023-04-26T04:16:00;6.00;;;1.60;;
22298;SDS011;11317;51.072;17.036;2023-04-26T04:18:26;6.07;;;1.90;;
22298;SDS011;11317;51.072;17.036;2023-04-26T04:20:52;4.53;;;1.95;;
22298;SDS011;11317;51.072;17.036;2023-04-26T04:23:18;5.60;;;2.15;;
22298;SDS011;11317;51.072;17.036;2023-04-26T04:25:44;3.35;;;1.75;;
22298;SDS011;11317;51.072;17.036;2023-04-26T04:28:12;4.38;;;2.08;;
22298;SDS011;11317;51.072;17.036;2023-04-26T04:30:38;2.90;;;1.88;;
22298;SDS011;11317;51.072;17.036;2023-04-26T04:33:05;3.72;;;1.98;;
22298;SDS011;11317;51.072;17.036;2023-04-26T04:35:31;7.55;;;1.90;;
22298;SDS011;11317;51.072;17.036;2023-04-26T04:37:58;4.05;;;1.90;;
22298;SDS011;11317;51.072;17.036;2023-04-26T04:40:24;1.85;;;1.63;;
22298;SDS011;11317;51.072;17.036;2023-04-26T04:42:50;3.65;;;1.63;;
22298;SDS011;11317;51.072;17.036;2023-04-26T04:45:18;2.75;;;1.27;;
22298;SDS011;11317;51.072;17.036;2023-04-26T04:47:44;3.53;;;1.70;;
22298;SDS011;11317;51.072;17.036;2023-04-26T04:50:11;4.63;;;1.52;;
22298;SDS011;11317;51.072;17.036;2023-04-26T04:52:38;3.80;;;1.42;;
22298;SDS011;11317;51.072;17.036;2023-04-26T04:55:05;2.78;;;1.63;;
22298;SDS011;11317;51.072;17.036;2023-04-26T04:57:31;4.40;;;1.52;;
22298;SDS011;11317;51.072;17.036;2023-04-26T04:59:57;3.60;;;1.58;;
22298;SDS011;11317;51.072;17.036;2023-04-26T05:02:23;4.07;;;1.58;;
22298;SDS011;11317;51.072;17.036;2023-04-26T05:04:49;3.22;;;1.50;;
22298;SDS011;11317;51.072;17.036;2023-04-26T05:07:15;2.35;;;1.58;;
22298;SDS011;11317;51.072;17.036;2023-04-26T05:09:42;3.75;;;1.60;;
22298;SDS011;11317;51.072;17.036;2023-04-26T05:12:08;3.88;;;1.75;;
22298;SDS011;11317;51.072;17.036;2023-04-26T05:14:34;5.57;;;1.60;;
22298;SDS011;11317;51.072;17.036;2023-04-26T05:17:00;3.83;;;1.50;;
22298;SDS011;11317;51.072;17.036;2023-04-26T05:19:27;6.40;;;2.00;;
22298;SDS011;11317;51.072;17.036;2023-04-26T05:21:53;3.20;;;1.23;;
22298;SDS011;11317;51.072;17.036;2023-04-26T05:24:19;2.60;;;1.40;;
22298;SDS011;11317;51.072;17.036;2023-04-26T05:26:45;2.90;;;1.40;;
22298;SDS011;11317;51.072;17.036;2023-04-26T05:29:11;1.88;;;1.08;;
22298;SDS011;11317;51.072;17.036;2023-04-26T05:31:38;8.18;;;1.80;;
22298;SDS011;11317;51.072;17.036;2023-04-26T05:34:04;8.75;;;1.77;;
22298;SDS011;11317;51.072;17.036;2023-04-26T05:36:30;5.10;;;1.45;;
22298;SDS011;11317;51.072;17.036;2023-04-26T05:38:56;1.58;;;1.48;;
22298;SDS011;11317;51.072;17.036;2023-04-26T05:41:22;2.25;;;1.30;;
22298;SDS011;11317;51.072;17.036;2023-04-26T05:43:48;8.48;;;1.75;;
22298;SDS011;11317;51.072;17.036;2023-04-26T05:46:14;4.25;;;1.35;;
22298;SDS011;11317;51.072;17.036;2023-04-26T05:48:40;4.57;;;1.60;;
22298;SDS011;11317;51.072;17.036;2023-04-26T05:51:06;4.97;;;1.33;;
22298;SDS011;11317;51.072;17.036;2023-04-26T05:53:32;3.35;;;1.20;;
22298;SDS011;11317;51.072;17.036;2023-04-26T05:55:58;2.88;;;1.42;;
22298;SDS011;11317;51.072;17.036;2023-04-26T05:58:24;3.03;;;1.13;;
22298;SDS011;11317;51.072;17.036;2023-04-26T06:00:50;3.15;;;1.08;;
22298;SDS011;11317;51.072;17.036;2023-04-26T06:03:17;4.35;;;1.40;;
22298;SDS011;11317;51.072;17.036;2023-04-26T06:05:43;4.68;;;1.70;;
22298;SDS011;11317;51.072;17.036;2023-04-26T06:08:09;5.30;;;1.42;;
22298;SDS011;11317;51.072;17.036;2023-04-26T06:10:35;2.92;;;1.50;;
22298;SDS011;11317;51.072;17.036;2023-04-26T06:13:02;4.95;;;1.27;;
22298;SDS011;11317;51.072;17.036;2023-04-26T06:15:28;3.15;;;1.17;;
22298;SDS011;11317;51.072;17.036;2023-04-26T06:17:55;4.60;;;1.15;;
22298;SDS011;11317;51.072;17.036;2023-04-26T06:20:21;1.70;;;1.10;;
22298;SDS011;11317;51.072;17.036;2023-04-26T06:22:47;2.88;;;1.20;;
22298;SDS011;11317;51.072;17.036;2023-04-26T06:25:14;3.03;;;1.25;;
22298;SDS011;11317;51.072;17.036;2023-04-26T06:27:40;2.10;;;0.93;;
22298;SDS011;11317;51.072;17.036;2023-04-26T06:30:06;3.13;;;1.02;;
22298;SDS011;11317;51.072;17.036;2023-04-26T06:32:33;4.90;;;1.33;;
22298;SDS011;11317;51.072;17.036;2023-04-26T06:34:59;3.10;;;0.70;;
22298;SDS011;11317;51.072;17.036;2023-04-26T06:37:25;2.33;;;0.77;;
22298;SDS011;11317;51.072;17.036;2023-04-26T06:39:51;4.72;;;1.00;;
22298;SDS011;11317;51.072;17.036;2023-04-26T06:42:17;5.53;;;1.23;;
22298;SDS011;11317;51.072;17.036;2023-04-26T06:44:44;5.13;;;1.20;;
22298;SDS011;11317;51.072;17.036;2023-04-26T06:47:10;6.55;;;1.30;;
22298;SDS011;11317;51.072;17.036;2023-04-26T06:49:36;2.35;;;1.23;;
22298;SDS011;11317;51.072;17.036;2023-04-26T06:52:02;2.50;;;1.10;;
22298;SDS011;11317;51.072;17.036;2023-04-26T06:54:31;4.05;;;1.08;;
22298;SDS011;11317;51.072;17.036;2023-04-26T06:56:57;4.07;;;1.23;;
22298;SDS011;11317;51.072;17.036;2023-04-26T06:59:23;3.08;;;1.02;;
22298;SDS011;11317;51.072;17.036;2023-04-26T07:01:49;5.47;;;1.17;;
22298;SDS011;11317;51.072;17.036;2023-04-26T07:04:15;7.57;;;1.30;;
22298;SDS011;11317;51.072;17.036;2023-04-26T07:06:42;3.40;;;1.05;;
22298;SDS011;11317;51.072;17.036;2023-04-26T07:09:09;1.10;;;0.80;;
22298;SDS011;11317;51.072;17.036;2023-04-26T07:11:35;3.50;;;1.00;;
22298;SDS011;11317;51.072;17.036;2023-04-26T07:14:01;7.03;;;1.25;;
22298;SDS011;11317;51.072;17.036;2023-04-26T07:16:27;3.78;;;1.30;;
22298;SDS011;11317;51.072;17.036;2023-04-26T07:18:53;4.57;;;0.88;;
22298;SDS011;11317;51.072;17.036;2023-04-26T07:21:22;1.95;;;0.95;;
22298;SDS011;11317;51.072;17.036;2023-04-26T07:23:52;3.58;;;0.82;;
22298;SDS011;11317;51.072;17.036;2023-04-26T07:26:22;2.50;;;1.02;;
22298;SDS011;11317;51.072;17.036;2023-04-26T07:28:51;2.60;;;1.15;;
22298;SDS011;11317;51.072;17.036;2023-04-26T07:31:18;1.83;;;0.85;;
22298;SDS011;11317;51.072;17.036;2023-04-26T07:33:44;2.08;;;0.77;;
22298;SDS011;11317;51.072;17.036;2023-04-26T07:36:10;4.97;;;0.90;;
22298;SDS011;11317;51.072;17.036;2023-04-26T07:38:36;1.48;;;0.80;;
22298;SDS011;11317;51.072;17.036;2023-04-26T07:41:02;4.63;;;1.08;;
22298;SDS011;11317;51.072;17.036;2023-04-26T07:43:29;3.30;;;0.95;;
22298;SDS011;11317;51.072;17.036;2023-04-26T07:46:01;1.15;;;0.60;;
22298;SDS011;11317;51.072;17.036;2023-04-26T07:48:27;4.03;;;1.08;;
22298;SDS011;11317;51.072;17.036;2023-04-26T07:50:53;0.77;;;0.70;;
22298;SDS011;11317;51.072;17.036;2023-04-26T07:53:20;1.13;;;0.70;;
22298;SDS011;11317;51.072;17.036;2023-04-26T07:55:46;3.92;;;0.80;;
22298;SDS011;11317;51.072;17.036;2023-04-26T07:58:12;1.98;;;0.75;;
22298;SDS011;11317;51.072;17.036;2023-04-26T08:00:39;3.70;;;0.63;;
22298;SDS011;11317;51.072;17.036;2023-04-26T08:03:05;3.72;;;0.80;;
22298;SDS011;11317;51.072;17.036;2023-04-26T08:05:32;4.38;;;0.90;;
22298;SDS011;11317;51.072;17.036;2023-04-26T08:07:58;2.15;;;0.70;;
22298;SDS011;11317;51.072;17.036;2023-04-26T08:10:26;2.35;;;0.65;;
22298;SDS011;11317;51.072;17.036;2023-04-26T08:12:52;2.85;;;0.80;;
22298;SDS011;11317;51.072;17.036;2023-04-26T08:15:18;3.30;;;0.60;;
22298;SDS011;11317;51.072;17.036;2023-04-26T08:17:44;2.83;;;0.63;;
22298;SDS011;11317;51.072;17.036;2023-04-26T08:20:11;1.42;;;0.70;;
22298;SDS011;11317;51.072;17.036;2023-04-26T08:22:37;5.22;;;0.70;;
22298;SDS011;11317;51.072;17.036;2023-04-26T08:25:03;3.83;;;0.70;;
22298;SDS011;11317;51.072;17.036;2023-04-26T08:27:30;2.53;;;0.60;;
22298;SDS011;11317;51.072;17.036;2023-04-26T08:29:58;1.85;;;0.65;;
22298;SDS011;11317;51.072;17.036;2023-04-26T08:32:24;4.63;;;0.70;;
22298;SDS011;11317;51.072;17.036;2023-04-26T08:34:50;3.33;;;0.80;;
22298;SDS011;11317;51.072;17.036;2023-04-26T08:37:16;2.55;;;0.70;;
22298;SDS011;11317;51.072;17.036;2023-04-26T08:39:42;3.38;;;0.80;;
22298;SDS011;11317;51.072;17.036;2023-04-26T08:42:15;3.70;;;1.17;;
22298;SDS011;11317;51.072;17.036;2023-04-26T08:44:42;4.63;;;0.73;;
22298;SDS011;11317;51.072;17.036;2023-04-26T08:50:01;2.58;;;0.93;;
22298;SDS011;11317;51.072;17.036;2023-04-26T08:52:30;5.03;;;0.80;;
22298;SDS011;11317;51.072;17.036;2023-04-26T08:54:57;3.22;;;0.60;;
22298;SDS011;11317;51.072;17.036;2023-04-26T08:57:23;10.73;;;0.82;;
22298;SDS011;11317;51.072;17.036;2023-04-26T08:59:50;1.05;;;0.47;;
22298;SDS011;11317;51.072;17.036;2023-04-26T09:02:18;2.45;;;0.77;;
22298;SDS011;11317;51.072;17.036;2023-04-26T09:04:45;4.25;;;0.57;;
22298;SDS011;11317;51.072;17.036;2023-04-26T09:07:14;1.10;;;0.60;;
22298;SDS011;11317;51.072;17.036;2023-04-26T09:09:47;0.82;;;0.47;;
22298;SDS011;11317;51.072;17.036;2023-04-26T09:12:16;4.13;;;0.80;;
22298;SDS011;11317;51.072;17.036;2023-04-26T09:14:44;0.80;;;0.77;;
22298;SDS011;11317;51.072;17.036;2023-04-26T09:17:29;2.63;;;0.60;;
22298;SDS011;11317;51.072;17.036;2023-04-26T09:19:56;2.47;;;0.60;;
22298;SDS011;11317;51.072;17.036;2023-04-26T09:22:34;3.78;;;0.80;;
22298;SDS011;11317;51.072;17.036;2023-04-26T09:25:01;1.98;;;0.60;;
22298;SDS011;11317;51.072;17.036;2023-04-26T09:27:39;2.50;;;0.65;;
22298;SDS011;11317;51.072;17.036;2023-04-26T09:30:16;0.77;;;0.63;;
22298;SDS011;11317;51.072;17.036;2023-04-26T09:40:20;2.42;;;0.75;;
22298;SDS011;11317;51.072;17.036;2023-04-26T09:42:55;1.05;;;0.50;;
22298;SDS011;11317;51.072;17.036;2023-04-26T09:45:25;3.28;;;0.60;;
22298;SDS011;11317;51.072;17.036;2023-04-26T09:47:52;1.90;;;0.70;;
22298;SDS011;11317;51.072;17.036;2023-04-26T09:50:24;1.17;;;0.40;;
22298;SDS011;11317;51.072;17.036;2023-04-26T09:55:27;2.83;;;0.95;;
22298;SDS011;11317;51.072;17.036;2023-04-26T09:57:55;2.03;;;0.73;;
22298;SDS011;11317;51.072;17.036;2023-04-26T10:00:23;2.53;;;0.60;;
22298;SDS011;11317;51.072;17.036;2023-04-26T10:02:50;2.85;;;0.70;;
22298;SDS011;11317;51.072;17.036;2023-04-26T10:05:20;3.53;;;0.70;;
22298;SDS011;11317;51.072;17.036;2023-04-26T10:07:47;3.78;;;0.80;;
22298;SDS011;11317;51.072;17.036;2023-04-26T10:10:13;1.48;;;0.50;;
22298;SDS011;11317;51.072;17.036;2023-04-26T10:12:40;2.05;;;0.50;;
22298;SDS011;11317;51.072;17.036;2023-04-26T10:15:10;2.15;;;0.68;;
22298;SDS011;11317;51.072;17.036;2023-04-26T10:17:36;2.60;;;0.60;;
22298;SDS011;11317;51.072;17.036;2023-04-26T10:20:03;7.00;;;1.10;;
22298;SDS011;11317;51.072;17.036;2023-04-26T10:22:33;2.10;;;0.63;;
22298;SDS011;11317;51.072;17.036;2023-04-26T10:25:04;3.70;;;0.70;;
22298;SDS011;11317;51.072;17.036;2023-04-26T10:30:12;1.63;;;0.70;;
22298;SDS011;11317;51.072;17.036;2023-04-26T10:35:24;2.40;;;0.75;;
22298;SDS011;11317;51.072;17.036;2023-04-26T10:42:50;2.97;;;0.90;;
22298;SDS011;11317;51.072;17.036;2023-04-26T10:45:36;3.97;;;0.90;;
22298;SDS011;11317;51.072;17.036;2023-04-26T10:53:26;4.78;;;0.60;;
22298;SDS011;11317;51.072;17.036;2023-04-26T10:56:56;3.47;;;0.93;;
22298;SDS011;11317;51.072;17.036;2023-04-26T10:59:06;3.15;;;0.80;;
22298;SDS011;11317;51.072;17.036;2023-04-26T11:01:43;3.10;;;0.80;;
22298;SDS011;11317;51.072;17.036;2023-04-26T11:04:09;2.97;;;0.70;;
22298;SDS011;11317;51.072;17.036;2023-04-26T11:06:46;1.90;;;0.85;;
22298;SDS011;11317;51.072;17.036;2023-04-26T11:09:32;0.65;;;0.60;;
22298;SDS011;11317;51.072;17.036;2023-04-26T11:12:11;0.82;;;0.60;;
22298;SDS011;11317;51.072;17.036;2023-04-26T11:14:38;1.67;;;0.85;;
22298;SDS011;11317;51.072;17.036;2023-04-26T11:17:06;3.85;;;0.73;;
22298;SDS011;11317;51.072;17.036;2023-04-26T11:19:33;1.08;;;0.70;;
22298;SDS011;11317;51.072;17.036;2023-04-26T11:22:00;3.60;;;0.80;;
22298;SDS011;11317;51.072;17.036;2023-04-26T11:24:27;1.30;;;0.70;;
22298;SDS011;11317;51.072;17.036;2023-04-26T11:26:56;2.13;;;0.70;;
22298;SDS011;11317;51.072;17.036;2023-04-26T11:29:22;1.40;;;0.70;;
22298;SDS011;11317;51.072;17.036;2023-04-26T11:31:50;3.97;;;0.60;;
22298;SDS011;11317;51.072;17.036;2023-04-26T11:34:19;1.65;;;0.60;;
22298;SDS011;11317;51.072;17.036;2023-04-26T11:36:57;4.68;;;0.60;;
22298;SDS011;11317;51.072;17.036;2023-04-26T11:39:24;1.73;;;0.70;;
22298;SDS011;11317;51.072;17.036;2023-04-26T11:41:50;1.33;;;0.68;;
22298;SDS011;11317;51.072;17.036;2023-04-26T11:44:19;1.90;;;0.77;;
22298;SDS011;11317;51.072;17.036;2023-04-26T11:46:48;2.08;;;0.70;;
22298;SDS011;11317;51.072;17.036;2023-04-26T11:49:14;2.25;;;0.70;;
22298;SDS011;11317;51.072;17.036;2023-04-26T11:51:41;1.23;;;1.08;;
22298;SDS011;11317;51.072;17.036;2023-04-26T11:54:08;3.42;;;0.75;;
22298;SDS011;11317;51.072;17.036;2023-04-26T11:56:35;3.58;;;1.02;;
22298;SDS011;11317;51.072;17.036;2023-04-26T11:59:01;1.65;;;0.70;;
22298;SDS011;11317;51.072;17.036;2023-04-26T12:01:28;1.48;;;0.57;;
22298;SDS011;11317;51.072;17.036;2023-04-26T12:03:55;2.50;;;0.70;;
22298;SDS011;11317;51.072;17.036;2023-04-26T12:06:56;3.25;;;0.90;;
22298;SDS011;11317;51.072;17.036;2023-04-26T12:09:16;1.55;;;0.75;;
22298;SDS011;11317;51.072;17.036;2023-04-26T12:11:56;3.15;;;0.70;;
22298;SDS011;11317;51.072;17.036;2023-04-26T12:14:32;2.40;;;0.70;;
22298;SDS011;11317;51.072;17.036;2023-04-26T12:17:03;2.38;;;0.80;;
22298;SDS011;11317;51.072;17.036;2023-04-26T12:19:36;2.60;;;0.70;;
22298;SDS011;11317;51.072;17.036;2023-04-26T12:22:04;2.30;;;1.08;;
22298;SDS011;11317;51.072;17.036;2023-04-26T12:24:31;2.10;;;0.77;;
22298;SDS011;11317;51.072;17.036;2023-04-26T12:27:00;3.00;;;0.70;;
22298;SDS011;11317;51.072;17.036;2023-04-26T12:29:30;1.48;;;0.70;;
22298;SDS011;11317;51.072;17.036;2023-04-26T12:31:57;2.38;;;1.00;;
22298;SDS011;11317;51.072;17.036;2023-04-26T12:34:23;2.38;;;0.60;;
22298;SDS011;11317;51.072;17.036;2023-04-26T12:36:50;1.35;;;0.80;;
22298;SDS011;11317;51.072;17.036;2023-04-26T12:39:16;0.60;;;0.60;;
22298;SDS011;11317;51.072;17.036;2023-04-26T12:41:42;2.25;;;0.50;;
22298;SDS011;11317;51.072;17.036;2023-04-26T12:44:09;4.18;;;0.80;;
22298;SDS011;11317;51.072;17.036;2023-04-26T12:46:36;2.13;;;0.80;;
22298;SDS011;11317;51.072;17.036;2023-04-26T12:49:03;2.63;;;0.73;;
22298;SDS011;11317;51.072;17.036;2023-04-26T12:51:29;0.50;;;0.50;;
22298;SDS011;11317;51.072;17.036;2023-04-26T12:53:58;2.20;;;0.60;;
22298;SDS011;11317;51.072;17.036;2023-04-26T12:56:24;0.77;;;0.38;;
22298;SDS011;11317;51.072;17.036;2023-04-26T12:58:50;2.00;;;0.65;;
22298;SDS011;11317;51.072;17.036;2023-04-26T13:01:17;2.08;;;0.90;;
22298;SDS011;11317;51.072;17.036;2023-04-26T13:03:43;3.00;;;0.85;;
22298;SDS011;11317;51.072;17.036;2023-04-26T13:06:09;1.48;;;0.70;;
22298;SDS011;11317;51.072;17.036;2023-04-26T13:08:35;1.60;;;0.90;;
22298;SDS011;11317;51.072;17.036;2023-04-26T13:11:02;4.82;;;0.80;;
22298;SDS011;11317;51.072;17.036;2023-04-26T13:13:28;3.00;;;0.82;;
22298;SDS011;11317;51.072;17.036;2023-04-26T13:15:53;0.68;;;0.63;;
22298;SDS011;11317;51.072;17.036;2023-04-26T13:18:20;5.32;;;0.70;;
22298;SDS011;11317;51.072;17.036;2023-04-26T13:20:45;3.17;;;0.80;;
22298;SDS011;11317;51.072;17.036;2023-04-26T13:23:12;1.27;;;0.60;;
22298;SDS011;11317;51.072;17.036;2023-04-26T13:25:38;3.42;;;0.80;;
22298;SDS011;11317;51.072;17.036;2023-04-26T13:28:04;7.50;;;1.00;;
22298;SDS011;11317;51.072;17.036;2023-04-26T13:30:30;2.55;;;0.65;;
22298;SDS011;11317;51.072;17.036;2023-04-26T13:32:57;1.42;;;0.70;;
22298;SDS011;11317;51.072;17.036;2023-04-26T13:35:23;0.85;;;0.60;;
22298;SDS011;11317;51.072;17.036;2023-04-26T13:37:49;1.45;;;1.00;;
22298;SDS011;11317;51.072;17.036;2023-04-26T13:40:15;3.15;;;1.02;;
22298;SDS011;11317;51.072;17.036;2023-04-26T13:42:42;0.80;;;0.70;;
22298;SDS011;11317;51.072;17.036;2023-04-26T13:45:09;1.67;;;0.60;;
22298;SDS011;11317;51.072;17.036;2023-04-26T13:47:35;2.58;;;0.60;;
22298;SDS011;11317;51.072;17.036;2023-04-26T13:50:01;2.15;;;0.80;;
22298;SDS011;11317;51.072;17.036;2023-04-26T13:52:28;0.80;;;0.60;;
22298;SDS011;11317;51.072;17.036;2023-04-26T13:54:54;2.08;;;0.90;;
22298;SDS011;11317;51.072;17.036;2023-04-26T13:57:20;1.50;;;0.68;;
22298;SDS011;11317;51.072;17.036;2023-04-26T13:59:47;1.27;;;0.57;;
22298;SDS011;11317;51.072;17.036;2023-04-26T14:02:13;4.30;;;0.93;;
22298;SDS011;11317;51.072;17.036;2023-04-26T14:04:39;2.53;;;0.85;;
22298;SDS011;11317;51.072;17.036;2023-04-26T14:07:05;1.67;;;0.70;;
22298;SDS011;11317;51.072;17.036;2023-04-26T14:09:31;2.67;;;0.73;;
22298;SDS011;11317;51.072;17.036;2023-04-26T14:11:57;2.90;;;0.90;;
22298;SDS011;11317;51.072;17.036;2023-04-26T14:14:24;3.08;;;1.08;;
22298;SDS011;11317;51.072;17.036;2023-04-26T14:16:50;1.35;;;0.70;;
22298;SDS011;11317;51.072;17.036;2023-04-26T14:19:16;1.65;;;0.70;;
22298;SDS011;11317;51.072;17.036;2023-04-26T14:21:42;4.97;;;0.90;;
22298;SDS011;11317;51.072;17.036;2023-04-26T14:24:08;1.70;;;1.00;;
22298;SDS011;11317;51.072;17.036;2023-04-26T14:26:35;1.17;;;0.77;;
22298;SDS011;11317;51.072;17.036;2023-04-26T14:29:01;5.55;;;1.00;;
22298;SDS011;11317;51.072;17.036;2023-04-26T14:31:29;1.67;;;0.70;;
22298;SDS011;11317;51.072;17.036;2023-04-26T14:33:55;2.60;;;0.70;;
22298;SDS011;11317;51.072;17.036;2023-04-26T14:36:22;2.80;;;0.93;;
22298;SDS011;11317;51.072;17.036;2023-04-26T14:38:48;2.42;;;0.85;;
22298;SDS011;11317;51.072;17.036;2023-04-26T14:41:15;1.58;;;0.77;;
22298;SDS011;11317;51.072;17.036;2023-04-26T14:43:42;1.65;;;1.00;;
22298;SDS011;11317;51.072;17.036;2023-04-26T14:46:10;2.05;;;1.00;;
22298;SDS011;11317;51.072;17.036;2023-04-26T14:48:37;2.47;;;0.90;;
22298;SDS011;11317;51.072;17.036;2023-04-26T14:51:03;3.50;;;0.85;;
22298;SDS011;11317;51.072;17.036;2023-04-26T14:53:29;1.80;;;0.93;;
22298;SDS011;11317;51.072;17.036;2023-04-26T14:55:58;4.75;;;1.20;;
22298;SDS011;11317;51.072;17.036;2023-04-26T14:58:25;0.88;;;0.80;;
22298;SDS011;11317;51.072;17.036;2023-04-26T15:00:51;2.22;;;1.08;;
22298;SDS011;11317;51.072;17.036;2023-04-26T15:03:18;1.52;;;0.75;;